sensor_id;sensor_type;location;lat;lon;timestamp;temperature;humidity
77592;DHT22;66891;46.884;17.436;2023-06-10T00:01:43;16.44;94.51
77592;DHT22;66891;46.884;17.436;2023-06-10T00:04:16;16.44;94.24
77592;DHT22;66891;46.884;17.436;2023-06-10T00:06:48;16.38;94.36
77592;DHT22;66891;46.884;17.436;2023-06-10T00:09:16;16.42;94.35
77592;DHT22;66891;46.884;17.436;2023-06-10T00:11:45;16.42;95.10
77592;DHT22;66891;46.884;17.436;2023-06-10T00:14:12;16.47;94.67
77592;DHT22;66891;46.884;17.436;2023-06-10T00:16:40;16.53;94.38
77592;DHT22;66891;46.884;17.436;2023-06-10T00:19:07;16.49;94.73
77592;DHT22;66891;46.884;17.436;2023-06-10T00:21:37;16.56;95.15
77592;DHT22;66891;46.884;17.436;2023-06-10T00:24:07;16.65;94.63
77592;DHT22;66891;46.884;17.436;2023-06-10T00:26:39;16.79;93.94
77592;DHT22;66891;46.884;17.436;2023-06-10T00:29:08;16.75;93.95
77592;DHT22;66891;46.884;17.436;2023-06-10T00:31:36;16.73;93.76
77592;DHT22;66891;46.884;17.436;2023-06-10T00:34:04;16.70;93.91
77592;DHT22;66891;46.884;17.436;2023-06-10T00:36:31;16.62;94.58
77592;DHT22;66891;46.884;17.436;2023-06-10T00:39:00;16.70;94.18
77592;DHT22;66891;46.884;17.436;2023-06-10T00:41:27;16.66;94.89
77592;DHT22;66891;46.884;17.436;2023-06-10T00:43:54;16.77;94.41
77592;DHT22;66891;46.884;17.436;2023-06-10T00:46:23;16.84;94.07
77592;DHT22;66891;46.884;17.436;2023-06-10T00:48:52;16.80;93.84
77592;DHT22;66891;46.884;17.436;2023-06-10T00:51:20;16.79;93.86
77592;DHT22;66891;46.884;17.436;2023-06-10T00:53:48;16.76;94.16
77592;DHT22;66891;46.884;17.436;2023-06-10T00:56:17;16.77;94.50
77592;DHT22;66891;46.884;17.436;2023-06-10T00:58:44;16.49;95.47
77592;DHT22;66891;46.884;17.436;2023-06-10T01:01:12;16.44;95.89
77592;DHT22;66891;46.884;17.436;2023-06-10T01:03:40;16.52;95.13
77592;DHT22;66891;46.884;17.436;2023-06-10T01:06:13;16.38;95.56
77592;DHT22;66891;46.884;17.436;2023-06-10T01:08:51;16.49;95.00
77592;DHT22;66891;46.884;17.436;2023-06-10T01:11:25;16.42;95.43
77592;DHT22;66891;46.884;17.436;2023-06-10T01:13:55;16.47;94.93
77592;DHT22;66891;46.884;17.436;2023-06-10T01:16:23;16.47;94.81
77592;DHT22;66891;46.884;17.436;2023-06-10T01:18:50;16.41;95.17
77592;DHT22;66891;46.884;17.436;2023-06-10T01:21:22;16.36;94.94
77592;DHT22;66891;46.884;17.436;2023-06-10T01:23:52;16.44;94.70
77592;DHT22;66891;46.884;17.436;2023-06-10T01:26:23;16.26;95.02
77592;DHT22;66891;46.884;17.436;2023-06-10T01:28:57;16.22;95.51
77592;DHT22;66891;46.884;17.436;2023-06-10T01:31:32;16.32;94.93
77592;DHT22;66891;46.884;17.436;2023-06-10T01:34:07;16.28;94.96
77592;DHT22;66891;46.884;17.436;2023-06-10T01:36:37;16.20;95.30
77592;DHT22;66891;46.884;17.436;2023-06-10T01:39:08;16.20;95.33
77592;DHT22;66891;46.884;17.436;2023-06-10T01:41:36;16.24;95.10
77592;DHT22;66891;46.884;17.436;2023-06-10T01:44:04;16.22;95.26
77592;DHT22;66891;46.884;17.436;2023-06-10T01:46:32;16.15;95.59
77592;DHT22;66891;46.884;17.436;2023-06-10T01:48:59;16.21;95.62
77592;DHT22;66891;46.884;17.436;2023-06-10T01:51:26;16.14;95.67
77592;DHT22;66891;46.884;17.436;2023-06-10T01:53:55;16.21;95.65
77592;DHT22;66891;46.884;17.436;2023-06-10T01:56:22;16.17;95.83
77592;DHT22;66891;46.884;17.436;2023-06-10T01:58:49;16.11;96.44
77592;DHT22;66891;46.884;17.436;2023-06-10T02:01:17;16.12;96.55
77592;DHT22;66891;46.884;17.436;2023-06-10T02:03:45;16.17;96.36
77592;DHT22;66891;46.884;17.436;2023-06-10T02:06:12;16.15;96.24
77592;DHT22;66891;46.884;17.436;2023-06-10T02:08:39;16.15;96.27
77592;DHT22;66891;46.884;17.436;2023-06-10T02:11:08;16.20;96.18
77592;DHT22;66891;46.884;17.436;2023-06-10T02:13:35;16.25;95.54
77592;DHT22;66891;46.884;17.436;2023-06-10T02:16:04;16.35;95.05
77592;DHT22;66891;46.884;17.436;2023-06-10T02:18:33;16.45;95.01
77592;DHT22;66891;46.884;17.436;2023-06-10T02:21:00;16.38;94.86
77592;DHT22;66891;46.884;17.436;2023-06-10T02:23:28;16.44;94.97
77592;DHT22;66891;46.884;17.436;2023-06-10T02:25:55;16.41;94.96
77592;DHT22;66891;46.884;17.436;2023-06-10T02:28:24;16.25;95.45
77592;DHT22;66891;46.884;17.436;2023-06-10T02:30:51;16.22;95.68
77592;DHT22;66891;46.884;17.436;2023-06-10T02:33:19;16.28;95.47
77592;DHT22;66891;46.884;17.436;2023-06-10T02:35:46;16.20;95.40
77592;DHT22;66891;46.884;17.436;2023-06-10T02:38:14;16.15;95.68
77592;DHT22;66891;46.884;17.436;2023-06-10T02:40:41;16.04;95.82
77592;DHT22;66891;46.884;17.436;2023-06-10T02:43:09;15.97;96.11
77592;DHT22;66891;46.884;17.436;2023-06-10T02:45:38;15.94;96.06
77592;DHT22;66891;46.884;17.436;2023-06-10T02:48:05;15.79;96.43
77592;DHT22;66891;46.884;17.436;2023-06-10T02:50:33;15.86;96.48
77592;DHT22;66891;46.884;17.436;2023-06-10T02:53:00;15.76;96.53
77592;DHT22;66891;46.884;17.436;2023-06-10T02:55:27;15.74;96.44
77592;DHT22;66891;46.884;17.436;2023-06-10T02:57:56;15.76;96.53
77592;DHT22;66891;46.884;17.436;2023-06-10T03:00:23;15.83;96.25
77592;DHT22;66891;46.884;17.436;2023-06-10T03:02:52;15.94;96.03
77592;DHT22;66891;46.884;17.436;2023-06-10T03:05:19;15.76;96.13
77592;DHT22;66891;46.884;17.436;2023-06-10T03:07:47;15.83;96.15
77592;DHT22;66891;46.884;17.436;2023-06-10T03:10:15;15.74;96.18
77592;DHT22;66891;46.884;17.436;2023-06-10T03:12:42;15.63;96.79
77592;DHT22;66891;46.884;17.436;2023-06-10T03:15:09;15.62;97.35
77592;DHT22;66891;46.884;17.436;2023-06-10T03:17:37;15.54;97.21
77592;DHT22;66891;46.884;17.436;2023-06-10T03:20:07;15.45;97.36
77592;DHT22;66891;46.884;17.436;2023-06-10T03:22:37;15.54;97.38
77592;DHT22;66891;46.884;17.436;2023-06-10T03:25:08;15.56;97.07
77592;DHT22;66891;46.884;17.436;2023-06-10T03:27:42;15.50;97.07
77592;DHT22;66891;46.884;17.436;2023-06-10T03:30:10;15.54;97.50
77592;DHT22;66891;46.884;17.436;2023-06-10T03:32:38;15.63;97.26
77592;DHT22;66891;46.884;17.436;2023-06-10T03:35:08;15.73;97.17
77592;DHT22;66891;46.884;17.436;2023-06-10T03:37:36;15.80;96.85
77592;DHT22;66891;46.884;17.436;2023-06-10T03:40:03;15.84;96.87
77592;DHT22;66891;46.884;17.436;2023-06-10T03:42:31;16.18;96.06
77592;DHT22;66891;46.884;17.436;2023-06-10T03:44:58;16.10;96.19
77592;DHT22;66891;46.884;17.436;2023-06-10T03:47:25;16.14;95.84
77592;DHT22;66891;46.884;17.436;2023-06-10T03:49:53;16.18;95.85
77592;DHT22;66891;46.884;17.436;2023-06-10T03:52:21;16.21;95.80
77592;DHT22;66891;46.884;17.436;2023-06-10T03:54:49;16.29;95.65
77592;DHT22;66891;46.884;17.436;2023-06-10T03:57:17;16.36;94.98
77592;DHT22;66891;46.884;17.436;2023-06-10T03:59:44;16.35;95.46
77592;DHT22;66891;46.884;17.436;2023-06-10T04:02:11;16.26;95.45
77592;DHT22;66891;46.884;17.436;2023-06-10T04:04:39;16.38;95.13
77592;DHT22;66891;46.884;17.436;2023-06-10T04:07:06;16.44;94.22
77592;DHT22;66891;46.884;17.436;2023-06-10T04:09:36;16.47;94.25
77592;DHT22;66891;46.884;17.436;2023-06-10T04:12:05;16.49;93.92
77592;DHT22;66891;46.884;17.436;2023-06-10T04:14:35;16.56;93.81
77592;DHT22;66891;46.884;17.436;2023-06-10T04:17:05;16.55;94.18
77592;DHT22;66891;46.884;17.436;2023-06-10T04:19:33;16.66;94.34
77592;DHT22;66891;46.884;17.436;2023-06-10T04:22:01;16.73;94.20
77592;DHT22;66891;46.884;17.436;2023-06-10T04:24:29;16.83;94.32
77592;DHT22;66891;46.884;17.436;2023-06-10T04:26:58;16.91;94.37
77592;DHT22;66891;46.884;17.436;2023-06-10T04:29:25;17.08;94.23
77592;DHT22;66891;46.884;17.436;2023-06-10T04:31:53;17.24;93.77
77592;DHT22;66891;46.884;17.436;2023-06-10T04:34:20;17.32;93.02
77592;DHT22;66891;46.884;17.436;2023-06-10T04:36:47;17.35;92.77
77592;DHT22;66891;46.884;17.436;2023-06-10T04:39:15;17.36;92.58
77592;DHT22;66891;46.884;17.436;2023-06-10T04:41:44;17.41;92.82
77592;DHT22;66891;46.884;17.436;2023-06-10T04:44:13;17.51;92.67
77592;DHT22;66891;46.884;17.436;2023-06-10T04:46:40;17.46;92.71
77592;DHT22;66891;46.884;17.436;2023-06-10T04:49:08;17.61;92.94
77592;DHT22;66891;46.884;17.436;2023-06-10T04:51:35;17.65;92.57
77592;DHT22;66891;46.884;17.436;2023-06-10T04:54:02;17.62;92.47
77592;DHT22;66891;46.884;17.436;2023-06-10T04:56:31;17.69;92.18
77592;DHT22;66891;46.884;17.436;2023-06-10T04:58:58;17.56;92.28
77592;DHT22;66891;46.884;17.436;2023-06-10T05:01:27;17.59;92.35
77592;DHT22;66891;46.884;17.436;2023-06-10T05:03:55;17.82;91.78
77592;DHT22;66891;46.884;17.436;2023-06-10T05:06:22;17.63;92.44
77592;DHT22;66891;46.884;17.436;2023-06-10T05:08:49;17.71;92.41
77592;DHT22;66891;46.884;17.436;2023-06-10T05:11:16;17.94;91.64
77592;DHT22;66891;46.884;17.436;2023-06-10T05:13:44;17.94;91.77
77592;DHT22;66891;46.884;17.436;2023-06-10T05:16:11;18.00;90.77
77592;DHT22;66891;46.884;17.436;2023-06-10T05:18:40;17.92;91.14
77592;DHT22;66891;46.884;17.436;2023-06-10T05:21:07;17.89;91.11
77592;DHT22;66891;46.884;17.436;2023-06-10T05:23:35;18.00;90.99
77592;DHT22;66891;46.884;17.436;2023-06-10T05:26:02;17.97;90.47
77592;DHT22;66891;46.884;17.436;2023-06-10T05:28:29;17.79;90.54
77592;DHT22;66891;46.884;17.436;2023-06-10T05:30:57;17.82;91.61
77592;DHT22;66891;46.884;17.436;2023-06-10T05:33:24;17.69;91.27
77592;DHT22;66891;46.884;17.436;2023-06-10T05:35:53;17.72;91.24
77592;DHT22;66891;46.884;17.436;2023-06-10T05:38:20;17.73;91.32
77592;DHT22;66891;46.884;17.436;2023-06-10T05:40:47;17.82;91.41
77592;DHT22;66891;46.884;17.436;2023-06-10T05:43:15;17.90;91.45
77592;DHT22;66891;46.884;17.436;2023-06-10T05:45:43;17.85;90.94
77592;DHT22;66891;46.884;17.436;2023-06-10T05:48:11;17.87;91.42
77592;DHT22;66891;46.884;17.436;2023-06-10T05:50:39;17.97;91.43
77592;DHT22;66891;46.884;17.436;2023-06-10T05:53:10;17.94;91.33
77592;DHT22;66891;46.884;17.436;2023-06-10T05:55:42;18.09;91.07
77592;DHT22;66891;46.884;17.436;2023-06-10T05:58:10;18.07;91.04
77592;DHT22;66891;46.884;17.436;2023-06-10T06:00:39;18.23;90.92
77592;DHT22;66891;46.884;17.436;2023-06-10T06:03:07;18.28;90.22
77592;DHT22;66891;46.884;17.436;2023-06-10T06:05:38;18.44;90.27
77592;DHT22;66891;46.884;17.436;2023-06-10T06:08:05;18.43;90.03
77592;DHT22;66891;46.884;17.436;2023-06-10T06:10:34;18.36;89.87
77592;DHT22;66891;46.884;17.436;2023-06-10T06:13:02;18.36;89.91
77592;DHT22;66891;46.884;17.436;2023-06-10T06:15:29;18.34;90.29
77592;DHT22;66891;46.884;17.436;2023-06-10T06:17:57;18.38;90.20
77592;DHT22;66891;46.884;17.436;2023-06-10T06:20:24;18.27;90.27
77592;DHT22;66891;46.884;17.436;2023-06-10T06:22:51;18.57;89.12
77592;DHT22;66891;46.884;17.436;2023-06-10T06:25:19;18.75;88.96
77592;DHT22;66891;46.884;17.436;2023-06-10T06:27:47;18.78;88.43
77592;DHT22;66891;46.884;17.436;2023-06-10T06:30:15;18.88;88.81
77592;DHT22;66891;46.884;17.436;2023-06-10T06:32:42;18.99;88.10
77592;DHT22;66891;46.884;17.436;2023-06-10T06:35:10;18.92;88.02
77592;DHT22;66891;46.884;17.436;2023-06-10T06:37:37;18.84;88.39
77592;DHT22;66891;46.884;17.436;2023-06-10T06:40:06;18.99;88.49
77592;DHT22;66891;46.884;17.436;2023-06-10T06:42:34;19.03;87.75
77592;DHT22;66891;46.884;17.436;2023-06-10T06:45:03;19.27;86.90
77592;DHT22;66891;46.884;17.436;2023-06-10T06:47:30;19.70;86.15
77592;DHT22;66891;46.884;17.436;2023-06-10T06:49:58;19.64;86.13
77592;DHT22;66891;46.884;17.436;2023-06-10T06:52:25;20.12;85.28
77592;DHT22;66891;46.884;17.436;2023-06-10T06:54:52;20.27;84.75
77592;DHT22;66891;46.884;17.436;2023-06-10T06:57:20;20.46;84.06
77592;DHT22;66891;46.884;17.436;2023-06-10T06:59:47;20.41;83.60
77592;DHT22;66891;46.884;17.436;2023-06-10T07:02:16;19.93;84.17
77592;DHT22;66891;46.884;17.436;2023-06-10T07:04:43;19.78;85.46
77592;DHT22;66891;46.884;17.436;2023-06-10T07:07:11;19.78;84.47
77592;DHT22;66891;46.884;17.436;2023-06-10T07:09:38;19.51;85.35
77592;DHT22;66891;46.884;17.436;2023-06-10T07:12:07;19.58;85.51
77592;DHT22;66891;46.884;17.436;2023-06-10T07:14:34;19.46;85.78
77592;DHT22;66891;46.884;17.436;2023-06-10T07:17:02;19.50;85.54
77592;DHT22;66891;46.884;17.436;2023-06-10T07:19:30;19.57;85.76
77592;DHT22;66891;46.884;17.436;2023-06-10T07:21:58;19.91;85.96
77592;DHT22;66891;46.884;17.436;2023-06-10T07:24:27;19.95;84.48
77592;DHT22;66891;46.884;17.436;2023-06-10T07:26:54;19.96;84.09
77592;DHT22;66891;46.884;17.436;2023-06-10T07:29:21;20.15;82.75
77592;DHT22;66891;46.884;17.436;2023-06-10T07:31:49;20.32;82.86
77592;DHT22;66891;46.884;17.436;2023-06-10T07:34:16;20.16;82.57
77592;DHT22;66891;46.884;17.436;2023-06-10T07:36:45;20.06;83.86
77592;DHT22;66891;46.884;17.436;2023-06-10T07:39:12;20.06;83.52
77592;DHT22;66891;46.884;17.436;2023-06-10T07:41:39;20.06;83.85
77592;DHT22;66891;46.884;17.436;2023-06-10T07:44:07;20.09;83.60
77592;DHT22;66891;46.884;17.436;2023-06-10T07:46:34;20.19;83.82
77592;DHT22;66891;46.884;17.436;2023-06-10T07:49:01;20.39;83.67
77592;DHT22;66891;46.884;17.436;2023-06-10T07:51:29;20.26;83.52
77592;DHT22;66891;46.884;17.436;2023-06-10T07:53:58;20.12;83.18
77592;DHT22;66891;46.884;17.436;2023-06-10T07:56:25;20.57;83.11
77592;DHT22;66891;46.884;17.436;2023-06-10T07:58:53;21.01;82.14
77592;DHT22;66891;46.884;17.436;2023-06-10T08:01:22;20.81;81.20
77592;DHT22;66891;46.884;17.436;2023-06-10T08:03:49;21.05;81.04
77592;DHT22;66891;46.884;17.436;2023-06-10T08:06:17;21.38;80.97
77592;DHT22;66891;46.884;17.436;2023-06-10T08:08:44;21.45;80.36
77592;DHT22;66891;46.884;17.436;2023-06-10T08:11:14;21.49;79.96
77592;DHT22;66891;46.884;17.436;2023-06-10T08:13:41;20.90;80.55
77592;DHT22;66891;46.884;17.436;2023-06-10T08:16:09;20.90;81.21
77592;DHT22;66891;46.884;17.436;2023-06-10T08:18:37;21.31;79.84
77592;DHT22;66891;46.884;17.436;2023-06-10T08:21:04;21.57;80.13
77592;DHT22;66891;46.884;17.436;2023-06-10T08:23:31;21.49;79.41
77592;DHT22;66891;46.884;17.436;2023-06-10T08:25:59;21.15;79.67
77592;DHT22;66891;46.884;17.436;2023-06-10T08:28:27;20.95;81.20
77592;DHT22;66891;46.884;17.436;2023-06-10T08:30:55;20.85;81.53
77592;DHT22;66891;46.884;17.436;2023-06-10T08:33:23;20.74;81.83
77592;DHT22;66891;46.884;17.436;2023-06-10T08:35:51;20.77;80.72
77592;DHT22;66891;46.884;17.436;2023-06-10T08:38:18;20.94;81.61
77592;DHT22;66891;46.884;17.436;2023-06-10T08:40:45;20.90;80.21
77592;DHT22;66891;46.884;17.436;2023-06-10T08:43:17;21.31;79.42
77592;DHT22;66891;46.884;17.436;2023-06-10T08:45:48;21.40;79.75
77592;DHT22;66891;46.884;17.436;2023-06-10T08:48:17;21.16;80.44
77592;DHT22;66891;46.884;17.436;2023-06-10T08:50:47;20.95;80.59
77592;DHT22;66891;46.884;17.436;2023-06-10T08:53:18;21.23;79.49
77592;DHT22;66891;46.884;17.436;2023-06-10T08:55:49;21.73;79.35
77592;DHT22;66891;46.884;17.436;2023-06-10T08:58:18;21.69;78.62
77592;DHT22;66891;46.884;17.436;2023-06-10T09:00:48;21.80;77.05
77592;DHT22;66891;46.884;17.436;2023-06-10T09:03:15;21.60;78.26
77592;DHT22;66891;46.884;17.436;2023-06-10T09:05:44;21.83;77.69
77592;DHT22;66891;46.884;17.436;2023-06-10T09:08:12;21.83;76.79
77592;DHT22;66891;46.884;17.436;2023-06-10T09:10:40;22.00;77.70
77592;DHT22;66891;46.884;17.436;2023-06-10T09:13:08;21.86;77.56
77592;DHT22;66891;46.884;17.436;2023-06-10T09:15:35;21.84;77.76
77592;DHT22;66891;46.884;17.436;2023-06-10T09:18:05;21.91;78.62
77592;DHT22;66891;46.884;17.436;2023-06-10T09:20:32;21.73;77.81
77592;DHT22;66891;46.884;17.436;2023-06-10T09:23:00;22.32;76.69
77592;DHT22;66891;46.884;17.436;2023-06-10T09:25:35;22.05;77.76
77592;DHT22;66891;46.884;17.436;2023-06-10T09:28:04;21.91;77.84
77592;DHT22;66891;46.884;17.436;2023-06-10T09:30:33;21.84;77.68
77592;DHT22;66891;46.884;17.436;2023-06-10T09:33:10;21.63;78.99
77592;DHT22;66891;46.884;17.436;2023-06-10T09:35:45;21.77;79.87
77592;DHT22;66891;46.884;17.436;2023-06-10T09:38:15;21.57;79.76
77592;DHT22;66891;46.884;17.436;2023-06-10T09:40:50;21.51;79.44
77592;DHT22;66891;46.884;17.436;2023-06-10T09:43:18;21.53;78.30
77592;DHT22;66891;46.884;17.436;2023-06-10T09:45:47;21.84;78.54
77592;DHT22;66891;46.884;17.436;2023-06-10T09:48:16;22.22;78.49
77592;DHT22;66891;46.884;17.436;2023-06-10T09:50:44;22.69;77.62
77592;DHT22;66891;46.884;17.436;2023-06-10T09:53:12;22.39;77.50
77592;DHT22;66891;46.884;17.436;2023-06-10T09:55:40;22.19;77.07
77592;DHT22;66891;46.884;17.436;2023-06-10T09:58:08;22.28;77.34
77592;DHT22;66891;46.884;17.436;2023-06-10T10:00:36;22.22;76.91
77592;DHT22;66891;46.884;17.436;2023-06-10T10:03:03;22.34;76.51
77592;DHT22;66891;46.884;17.436;2023-06-10T10:05:32;22.28;75.76
77592;DHT22;66891;46.884;17.436;2023-06-10T10:07:59;22.31;75.98
77592;DHT22;66891;46.884;17.436;2023-06-10T10:10:27;22.42;75.55
77592;DHT22;66891;46.884;17.436;2023-06-10T10:12:55;22.59;76.13
77592;DHT22;66891;46.884;17.436;2023-06-10T10:15:29;22.60;74.83
77592;DHT22;66891;46.884;17.436;2023-06-10T10:18:03;22.51;73.88
77592;DHT22;66891;46.884;17.436;2023-06-10T10:20:37;22.55;73.81
77592;DHT22;66891;46.884;17.436;2023-06-10T10:23:10;22.76;75.39
77592;DHT22;66891;46.884;17.436;2023-06-10T10:25:42;22.72;75.96
77592;DHT22;66891;46.884;17.436;2023-06-10T10:28:10;22.53;76.10
77592;DHT22;66891;46.884;17.436;2023-06-10T10:30:40;22.32;76.24
77592;DHT22;66891;46.884;17.436;2023-06-10T10:33:13;22.25;76.08
77592;DHT22;66891;46.884;17.436;2023-06-10T10:35:45;22.45;75.91
77592;DHT22;66891;46.884;17.436;2023-06-10T10:38:13;22.46;74.74
77592;DHT22;66891;46.884;17.436;2023-06-10T10:40:41;22.72;74.65
77592;DHT22;66891;46.884;17.436;2023-06-10T10:43:09;22.86;72.48
77592;DHT22;66891;46.884;17.436;2023-06-10T10:45:37;22.70;72.02
77592;DHT22;66891;46.884;17.436;2023-06-10T10:48:07;22.64;74.67
77592;DHT22;66891;46.884;17.436;2023-06-10T10:50:37;22.39;75.61
77592;DHT22;66891;46.884;17.436;2023-06-10T10:53:06;22.26;76.77
77592;DHT22;66891;46.884;17.436;2023-06-10T10:55:34;22.29;76.43
77592;DHT22;66891;46.884;17.436;2023-06-10T10:58:03;22.26;76.56
77592;DHT22;66891;46.884;17.436;2023-06-10T11:00:32;22.14;75.93
77592;DHT22;66891;46.884;17.436;2023-06-10T11:03:05;22.25;75.78
77592;DHT22;66891;46.884;17.436;2023-06-10T11:05:39;22.42;76.14
77592;DHT22;66891;46.884;17.436;2023-06-10T11:08:10;22.57;75.74
77592;DHT22;66891;46.884;17.436;2023-06-10T11:10:39;22.51;76.75
77592;DHT22;66891;46.884;17.436;2023-06-10T11:13:08;22.41;75.46
77592;DHT22;66891;46.884;17.436;2023-06-10T11:15:42;22.31;75.67
77592;DHT22;66891;46.884;17.436;2023-06-10T11:18:19;22.24;75.39
77592;DHT22;66891;46.884;17.436;2023-06-10T11:21:00;22.31;75.38
77592;DHT22;66891;46.884;17.436;2023-06-10T11:23:42;22.55;75.59
77592;DHT22;66891;46.884;17.436;2023-06-10T11:26:16;22.73;74.33
77592;DHT22;66891;46.884;17.436;2023-06-10T11:29:03;22.67;73.69
77592;DHT22;66891;46.884;17.436;2023-06-10T11:31:32;22.82;73.60
77592;DHT22;66891;46.884;17.436;2023-06-10T11:34:02;22.72;74.07
77592;DHT22;66891;46.884;17.436;2023-06-10T11:36:34;22.99;75.96
77592;DHT22;66891;46.884;17.436;2023-06-10T11:39:06;22.62;75.19
77592;DHT22;66891;46.884;17.436;2023-06-10T11:41:35;22.49;76.00
77592;DHT22;66891;46.884;17.436;2023-06-10T11:44:04;22.46;75.53
77592;DHT22;66891;46.884;17.436;2023-06-10T11:46:33;22.60;76.05
77592;DHT22;66891;46.884;17.436;2023-06-10T11:49:01;22.57;74.28
77592;DHT22;66891;46.884;17.436;2023-06-10T11:51:31;22.90;74.19
77592;DHT22;66891;46.884;17.436;2023-06-10T11:53:59;22.97;73.88
77592;DHT22;66891;46.884;17.436;2023-06-10T11:56:29;23.27;73.17
77592;DHT22;66891;46.884;17.436;2023-06-10T11:58:58;23.28;73.62
77592;DHT22;66891;46.884;17.436;2023-06-10T12:01:26;23.35;72.09
77592;DHT22;66891;46.884;17.436;2023-06-10T12:04:00;23.44;71.57
77592;DHT22;66891;46.884;17.436;2023-06-10T12:06:38;23.66;70.44
77592;DHT22;66891;46.884;17.436;2023-06-10T12:09:06;24.20;70.38
77592;DHT22;66891;46.884;17.436;2023-06-10T12:11:55;24.18;68.11
77592;DHT22;66891;46.884;17.436;2023-06-10T12:14:55;24.61;66.83
77592;DHT22;66891;46.884;17.436;2023-06-10T12:17:36;24.69;67.47
77592;DHT22;66891;46.884;17.436;2023-06-10T12:20:07;24.45;67.00
77592;DHT22;66891;46.884;17.436;2023-06-10T12:22:39;24.62;67.50
77592;DHT22;66891;46.884;17.436;2023-06-10T12:25:08;24.62;67.79
77592;DHT22;66891;46.884;17.436;2023-06-10T12:27:39;24.81;66.84
77592;DHT22;66891;46.884;17.436;2023-06-10T12:30:08;24.83;66.94
77592;DHT22;66891;46.884;17.436;2023-06-10T12:32:36;24.67;66.72
77592;DHT22;66891;46.884;17.436;2023-06-10T12:35:05;24.78;67.34
77592;DHT22;66891;46.884;17.436;2023-06-10T12:37:34;24.81;68.06
77592;DHT22;66891;46.884;17.436;2023-06-10T12:40:07;24.67;67.86
77592;DHT22;66891;46.884;17.436;2023-06-10T12:42:37;24.83;66.76
77592;DHT22;66891;46.884;17.436;2023-06-10T12:45:07;25.12;67.09
77592;DHT22;66891;46.884;17.436;2023-06-10T12:47:38;25.38;67.24
77592;DHT22;66891;46.884;17.436;2023-06-10T12:50:07;25.43;66.28
77592;DHT22;66891;46.884;17.436;2023-06-10T12:52:36;25.12;65.50
77592;DHT22;66891;46.884;17.436;2023-06-10T12:55:04;25.41;65.21
77592;DHT22;66891;46.884;17.436;2023-06-10T12:57:32;25.23;65.19
77592;DHT22;66891;46.884;17.436;2023-06-10T13:00:01;24.76;65.23
77592;DHT22;66891;46.884;17.436;2023-06-10T13:02:31;24.73;65.94
77592;DHT22;66891;46.884;17.436;2023-06-10T13:04:59;24.90;65.89
77592;DHT22;66891;46.884;17.436;2023-06-10T13:07:26;25.06;66.85
77592;DHT22;66891;46.884;17.436;2023-06-10T13:09:54;25.23;66.66
77592;DHT22;66891;46.884;17.436;2023-06-10T13:12:25;25.10;65.76
77592;DHT22;66891;46.884;17.436;2023-06-10T13:15:14;24.99;65.17
77592;DHT22;66891;46.884;17.436;2023-06-10T13:17:44;24.75;65.08
77592;DHT22;66891;46.884;17.436;2023-06-10T13:20:17;24.75;65.17
77592;DHT22;66891;46.884;17.436;2023-06-10T13:22:45;24.89;65.77
77592;DHT22;66891;46.884;17.436;2023-06-10T13:25:13;24.61;65.87
77592;DHT22;66891;46.884;17.436;2023-06-10T13:27:40;24.79;65.55
77592;DHT22;66891;46.884;17.436;2023-06-10T13:30:10;24.78;65.33
77592;DHT22;66891;46.884;17.436;2023-06-10T13:32:40;24.60;64.65
77592;DHT22;66891;46.884;17.436;2023-06-10T13:35:08;24.95;65.26
77592;DHT22;66891;46.884;17.436;2023-06-10T13:37:36;25.33;66.33
77592;DHT22;66891;46.884;17.436;2023-06-10T13:40:05;25.23;64.96
77592;DHT22;66891;46.884;17.436;2023-06-10T13:42:33;25.10;65.76
77592;DHT22;66891;46.884;17.436;2023-06-10T13:45:03;25.67;65.45
77592;DHT22;66891;46.884;17.436;2023-06-10T13:47:31;25.91;63.81
77592;DHT22;66891;46.884;17.436;2023-06-10T13:50:01;25.27;64.84
77592;DHT22;66891;46.884;17.436;2023-06-10T13:52:29;24.90;64.95
77592;DHT22;66891;46.884;17.436;2023-06-10T13:54:56;24.85;64.86
77592;DHT22;66891;46.884;17.436;2023-06-10T13:57:23;24.95;65.77
77592;DHT22;66891;46.884;17.436;2023-06-10T13:59:51;25.16;65.99
77592;DHT22;66891;46.884;17.436;2023-06-10T14:02:18;24.93;64.79
77592;DHT22;66891;46.884;17.436;2023-06-10T14:04:46;24.99;65.84
77592;DHT22;66891;46.884;17.436;2023-06-10T14:07:16;24.71;65.83
77592;DHT22;66891;46.884;17.436;2023-06-10T14:09:44;24.68;66.39
77592;DHT22;66891;46.884;17.436;2023-06-10T14:12:13;24.79;66.34
77592;DHT22;66891;46.884;17.436;2023-06-10T14:14:40;24.71;65.84
77592;DHT22;66891;46.884;17.436;2023-06-10T14:17:08;24.69;66.38
77592;DHT22;66891;46.884;17.436;2023-06-10T14:19:35;24.68;66.79
77592;DHT22;66891;46.884;17.436;2023-06-10T14:22:03;24.61;66.47
77592;DHT22;66891;46.884;17.436;2023-06-10T14:24:35;24.61;65.83
77592;DHT22;66891;46.884;17.436;2023-06-10T14:27:05;24.33;65.81
77592;DHT22;66891;46.884;17.436;2023-06-10T14:29:33;24.30;67.05
77592;DHT22;66891;46.884;17.436;2023-06-10T14:32:01;24.34;68.71
77592;DHT22;66891;46.884;17.436;2023-06-10T14:34:28;24.31;67.94
77592;DHT22;66891;46.884;17.436;2023-06-10T14:36:55;24.20;68.39
77592;DHT22;66891;46.884;17.436;2023-06-10T14:39:23;23.89;67.54
77592;DHT22;66891;46.884;17.436;2023-06-10T14:41:51;23.72;67.60
77592;DHT22;66891;46.884;17.436;2023-06-10T14:44:22;23.73;66.53
77592;DHT22;66891;46.884;17.436;2023-06-10T14:46:49;23.72;68.33
77592;DHT22;66891;46.884;17.436;2023-06-10T14:49:16;23.92;69.23
77592;DHT22;66891;46.884;17.436;2023-06-10T14:51:44;24.04;69.50
77592;DHT22;66891;46.884;17.436;2023-06-10T14:54:11;24.14;66.83
77592;DHT22;66891;46.884;17.436;2023-06-10T14:56:39;24.14;68.17
77592;DHT22;66891;46.884;17.436;2023-06-10T14:59:07;24.20;67.18
77592;DHT22;66891;46.884;17.436;2023-06-10T15:01:35;24.38;68.24
77592;DHT22;66891;46.884;17.436;2023-06-10T15:04:02;24.33;67.47
77592;DHT22;66891;46.884;17.436;2023-06-10T15:06:30;24.23;68.54
77592;DHT22;66891;46.884;17.436;2023-06-10T15:08:57;24.23;67.29
77592;DHT22;66891;46.884;17.436;2023-06-10T15:11:25;24.25;67.85
77592;DHT22;66891;46.884;17.436;2023-06-10T15:13:52;24.40;67.09
77592;DHT22;66891;46.884;17.436;2023-06-10T15:16:21;24.50;68.01
77592;DHT22;66891;46.884;17.436;2023-06-10T15:18:49;24.50;67.43
77592;DHT22;66891;46.884;17.436;2023-06-10T15:21:16;24.58;67.49
77592;DHT22;66891;46.884;17.436;2023-06-10T15:23:43;24.68;68.18
77592;DHT22;66891;46.884;17.436;2023-06-10T15:26:11;24.65;68.66